sensor_id;sensor_type;location;lat;lon;timestamp;P1;durP1;ratioP1;P2;durP2;ratioP2
16031;SDS011;8120;48.308;8.914;2023-09-08T00:01:23;10.83;;;7.63;;
16031;SDS011;8120;48.308;8.914;2023-09-08T00:03:51;9.63;;;7.43;;
16031;SDS011;8120;48.308;8.914;2023-09-08T00:06:19;9.93;;;6.90;;
16031;SDS011;8120;48.308;8.914;2023-09-08T00:08:47;9.17;;;7.20;;
16031;SDS011;8120;48.308;8.914;2023-09-08T00:11:15;8.30;;;6.87;;
16031;SDS011;8120;48.308;8.914;2023-09-08T00:13:43;8.70;;;6.77;;
16031;SDS011;8120;48.308;8.914;2023-09-08T00:16:11;9.27;;;6.40;;
16031;SDS011;8120;48.308;8.914;2023-09-08T00:18:40;9.43;;;7.53;;
16031;SDS011;8120;48.308;8.914;2023-09-08T00:21:08;9.73;;;7.57;;
16031;SDS011;8120;48.308;8.914;2023-09-08T00:23:37;10.23;;;8.13;;
16031;SDS011;8120;48.308;8.914;2023-09-08T00:26:04;10.67;;;8.33;;
16031;SDS011;8120;48.308;8.914;2023-09-08T00:28:33;9.87;;;7.97;;
16031;SDS011;8120;48.308;8.914;2023-09-08T00:31:01;10.17;;;7.77;;
16031;SDS011;8120;48.308;8.914;2023-09-08T00:33:29;10.93;;;7.10;;
16031;SDS011;8120;48.308;8.914;2023-09-08T00:35:58;10.97;;;8.43;;
16031;SDS011;8120;48.308;8.914;2023-09-08T00:38:26;10.77;;;8.30;;
16031;SDS011;8120;48.308;8.914;2023-09-08T00:40:54;11.10;;;8.93;;
16031;SDS011;8120;48.308;8.914;2023-09-08T00:43:22;10.80;;;7.87;;
16031;SDS011;8120;48.308;8.914;2023-09-08T00:45:50;11.20;;;8.73;;
16031;SDS011;8120;48.308;8.914;2023-09-08T00:48:18;10.23;;;8.00;;
16031;SDS011;8120;48.308;8.914;2023-09-08T00:50:46;11.63;;;8.37;;
16031;SDS011;8120;48.308;8.914;2023-09-08T00:53:16;10.43;;;7.10;;
16031;SDS011;8120;48.308;8.914;2023-09-08T00:55:44;10.23;;;7.30;;
16031;SDS011;8120;48.308;8.914;2023-09-08T00:58:12;8.80;;;7.00;;
16031;SDS011;8120;48.308;8.914;2023-09-08T01:00:40;9.70;;;6.77;;
16031;SDS011;8120;48.308;8.914;2023-09-08T01:03:08;8.43;;;7.00;;
16031;SDS011;8120;48.308;8.914;2023-09-08T01:05:36;11.30;;;6.67;;
16031;SDS011;8120;48.308;8.914;2023-09-08T01:08:05;9.23;;;6.63;;
16031;SDS011;8120;48.308;8.914;2023-09-08T01:10:35;8.67;;;6.93;;
16031;SDS011;8120;48.308;8.914;2023-09-08T01:13:04;10.70;;;7.57;;
16031;SDS011;8120;48.308;8.914;2023-09-08T01:15:32;9.67;;;7.60;;
16031;SDS011;8120;48.308;8.914;2023-09-08T01:17:59;10.70;;;7.90;;
16031;SDS011;8120;48.308;8.914;2023-09-08T01:20:30;11.97;;;7.80;;
16031;SDS011;8120;48.308;8.914;2023-09-08T01:23:03;10.40;;;7.90;;
16031;SDS011;8120;48.308;8.914;2023-09-08T01:25:44;9.00;;;7.70;;
16031;SDS011;8120;48.308;8.914;2023-09-08T01:28:18;10.00;;;7.97;;
16031;SDS011;8120;48.308;8.914;2023-09-08T01:30:47;10.67;;;7.87;;
16031;SDS011;8120;48.308;8.914;2023-09-08T01:33:17;10.77;;;7.47;;
16031;SDS011;8120;48.308;8.914;2023-09-08T01:35:45;9.70;;;7.47;;
16031;SDS011;8120;48.308;8.914;2023-09-08T01:38:14;8.83;;;7.33;;
16031;SDS011;8120;48.308;8.914;2023-09-08T01:40:43;11.07;;;9.17;;
16031;SDS011;8120;48.308;8.914;2023-09-08T01:43:11;11.73;;;9.93;;
16031;SDS011;8120;48.308;8.914;2023-09-08T01:45:39;11.47;;;9.60;;
16031;SDS011;8120;48.308;8.914;2023-09-08T01:48:07;11.30;;;9.83;;
16031;SDS011;8120;48.308;8.914;2023-09-08T01:50:34;11.17;;;9.90;;
16031;SDS011;8120;48.308;8.914;2023-09-08T01:53:02;9.90;;;8.50;;
16031;SDS011;8120;48.308;8.914;2023-09-08T01:55:31;9.67;;;7.93;;
16031;SDS011;8120;48.308;8.914;2023-09-08T01:58:00;10.07;;;7.70;;
16031;SDS011;8120;48.308;8.914;2023-09-08T02:00:28;11.60;;;8.93;;
16031;SDS011;8120;48.308;8.914;2023-09-08T02:02:56;12.07;;;8.20;;
16031;SDS011;8120;48.308;8.914;2023-09-08T02:05:23;11.47;;;9.30;;
16031;SDS011;8120;48.308;8.914;2023-09-08T02:07:53;13.13;;;9.40;;
16031;SDS011;8120;48.308;8.914;2023-09-08T02:10:22;10.13;;;8.17;;
16031;SDS011;8120;48.308;8.914;2023-09-08T02:12:50;11.97;;;7.93;;
16031;SDS011;8120;48.308;8.914;2023-09-08T02:15:20;8.70;;;7.00;;
16031;SDS011;8120;48.308;8.914;2023-09-08T02:17:49;9.10;;;7.07;;
16031;SDS011;8120;48.308;8.914;2023-09-08T02:20:17;8.27;;;6.53;;
16031;SDS011;8120;48.308;8.914;2023-09-08T02:22:45;8.80;;;6.47;;
16031;SDS011;8120;48.308;8.914;2023-09-08T02:25:15;7.57;;;5.77;;
16031;SDS011;8120;48.308;8.914;2023-09-08T02:27:43;7.47;;;6.20;;
16031;SDS011;8120;48.308;8.914;2023-09-08T02:30:11;10.07;;;7.30;;
16031;SDS011;8120;48.308;8.914;2023-09-08T02:32:40;11.07;;;9.03;;
16031;SDS011;8120;48.308;8.914;2023-09-08T02:35:09;10.60;;;8.37;;
16031;SDS011;8120;48.308;8.914;2023-09-08T02:37:37;10.50;;;8.60;;
16031;SDS011;8120;48.308;8.914;2023-09-08T02:40:06;11.07;;;9.00;;
16031;SDS011;8120;48.308;8.914;2023-09-08T02:42:34;12.47;;;9.20;;
16031;SDS011;8120;48.308;8.914;2023-09-08T02:45:02;12.10;;;8.60;;
16031;SDS011;8120;48.308;8.914;2023-09-08T02:47:30;10.07;;;8.40;;
16031;SDS011;8120;48.308;8.914;2023-09-08T02:49:59;9.00;;;7.50;;
16031;SDS011;8120;48.308;8.914;2023-09-08T02:52:28;11.93;;;8.50;;
16031;SDS011;8120;48.308;8.914;2023-09-08T02:54:56;11.33;;;9.00;;
16031;SDS011;8120;48.308;8.914;2023-09-08T02:57:24;11.00;;;9.03;;
16031;SDS011;8120;48.308;8.914;2023-09-08T02:59:51;14.70;;;9.50;;
16031;SDS011;8120;48.308;8.914;2023-09-08T03:02:24;11.07;;;8.93;;
16031;SDS011;8120;48.308;8.914;2023-09-08T03:04:52;12.57;;;8.80;;
16031;SDS011;8120;48.308;8.914;2023-09-08T03:07:22;11.20;;;8.83;;
16031;SDS011;8120;48.308;8.914;2023-09-08T03:09:50;11.60;;;8.13;;
16031;SDS011;8120;48.308;8.914;2023-09-08T03:12:17;12.70;;;9.03;;
16031;SDS011;8120;48.308;8.914;2023-09-08T03:14:45;10.87;;;7.60;;
16031;SDS011;8120;48.308;8.914;2023-09-08T03:17:13;10.97;;;8.53;;
16031;SDS011;8120;48.308;8.914;2023-09-08T03:19:44;10.70;;;7.90;;
16031;SDS011;8120;48.308;8.914;2023-09-08T03:22:12;9.90;;;7.97;;
16031;SDS011;8120;48.308;8.914;2023-09-08T03:24:41;11.13;;;8.10;;
16031;SDS011;8120;48.308;8.914;2023-09-08T03:27:09;10.57;;;7.93;;
16031;SDS011;8120;48.308;8.914;2023-09-08T03:29:37;9.13;;;7.03;;
16031;SDS011;8120;48.308;8.914;2023-09-08T03:32:05;9.70;;;7.00;;
16031;SDS011;8120;48.308;8.914;2023-09-08T03:34:33;9.80;;;6.57;;
16031;SDS011;8120;48.308;8.914;2023-09-08T03:37:01;8.67;;;7.00;;
16031;SDS011;8120;48.308;8.914;2023-09-08T03:39:29;9.10;;;6.90;;
16031;SDS011;8120;48.308;8.914;2023-09-08T03:41:58;8.57;;;6.33;;
16031;SDS011;8120;48.308;8.914;2023-09-08T03:44:26;8.73;;;6.87;;
16031;SDS011;8120;48.308;8.914;2023-09-08T03:46:54;10.47;;;7.67;;
16031;SDS011;8120;48.308;8.914;2023-09-08T03:49:22;8.57;;;7.57;;
16031;SDS011;8120;48.308;8.914;2023-09-08T03:51:50;10.77;;;7.47;;
16031;SDS011;8120;48.308;8.914;2023-09-08T03:54:17;9.97;;;7.10;;
16031;SDS011;8120;48.308;8.914;2023-09-08T03:56:45;10.03;;;7.47;;
16031;SDS011;8120;48.308;8.914;2023-09-08T03:59:15;9.63;;;7.30;;
16031;SDS011;8120;48.308;8.914;2023-09-08T04:01:42;9.33;;;7.37;;
16031;SDS011;8120;48.308;8.914;2023-09-08T04:04:10;9.80;;;7.87;;
16031;SDS011;8120;48.308;8.914;2023-09-08T04:06:38;9.57;;;7.63;;
16031;SDS011;8120;48.308;8.914;2023-09-08T04:09:06;9.87;;;8.07;;
16031;SDS011;8120;48.308;8.914;2023-09-08T04:11:34;8.80;;;7.13;;
16031;SDS011;8120;48.308;8.914;2023-09-08T04:14:02;8.63;;;6.73;;
16031;SDS011;8120;48.308;8.914;2023-09-08T04:16:31;10.50;;;7.43;;
16031;SDS011;8120;48.308;8.914;2023-09-08T04:18:59;7.87;;;5.83;;
16031;SDS011;8120;48.308;8.914;2023-09-08T04:21:27;10.17;;;6.33;;
16031;SDS011;8120;48.308;8.914;2023-09-08T04:23:55;8.83;;;6.73;;
16031;SDS011;8120;48.308;8.914;2023-09-08T04:26:23;7.93;;;6.23;;
16031;SDS011;8120;48.308;8.914;2023-09-08T04:28:51;8.10;;;7.00;;
16031;SDS011;8120;48.308;8.914;2023-09-08T04:31:19;9.40;;;7.43;;
16031;SDS011;8120;48.308;8.914;2023-09-08T04:33:49;10.13;;;7.83;;
16031;SDS011;8120;48.308;8.914;2023-09-08T04:36:19;9.53;;;7.33;;
16031;SDS011;8120;48.308;8.914;2023-09-08T04:38:47;8.47;;;7.03;;
16031;SDS011;8120;48.308;8.914;2023-09-08T04:41:15;9.27;;;7.67;;
16031;SDS011;8120;48.308;8.914;2023-09-08T04:43:43;8.93;;;6.70;;
16031;SDS011;8120;48.308;8.914;2023-09-08T04:46:11;9.37;;;7.27;;
16031;SDS011;8120;48.308;8.914;2023-09-08T04:48:38;9.17;;;6.97;;
16031;SDS011;8120;48.308;8.914;2023-09-08T04:51:08;9.53;;;7.13;;
16031;SDS011;8120;48.308;8.914;2023-09-08T04:53:36;9.00;;;6.60;;
16031;SDS011;8120;48.308;8.914;2023-09-08T04:56:04;8.50;;;6.13;;
16031;SDS011;8120;48.308;8.914;2023-09-08T04:58:32;9.63;;;6.50;;
16031;SDS011;8120;48.308;8.914;2023-09-08T05:01:00;14.03;;;6.77;;
16031;SDS011;8120;48.308;8.914;2023-09-08T05:03:28;10.17;;;6.77;;
16031;SDS011;8120;48.308;8.914;2023-09-08T05:05:57;7.63;;;6.20;;
16031;SDS011;8120;48.308;8.914;2023-09-08T05:08:26;9.53;;;7.33;;
16031;SDS011;8120;48.308;8.914;2023-09-08T05:10:54;9.60;;;5.83;;
16031;SDS011;8120;48.308;8.914;2023-09-08T05:13:22;8.37;;;5.93;;
16031;SDS011;8120;48.308;8.914;2023-09-08T05:15:57;9.13;;;6.50;;
16031;SDS011;8120;48.308;8.914;2023-09-08T05:18:37;8.07;;;5.57;;
16031;SDS011;8120;48.308;8.914;2023-09-08T05:21:05;8.83;;;6.50;;
16031;SDS011;8120;48.308;8.914;2023-09-08T05:23:35;8.83;;;6.87;;
16031;SDS011;8120;48.308;8.914;2023-09-08T05:26:03;9.93;;;5.97;;
16031;SDS011;8120;48.308;8.914;2023-09-08T05:28:30;7.77;;;5.73;;
16031;SDS011;8120;48.308;8.914;2023-09-08T05:31:01;9.00;;;5.50;;
16031;SDS011;8120;48.308;8.914;2023-09-08T05:33:29;9.97;;;5.63;;
16031;SDS011;8120;48.308;8.914;2023-09-08T05:35:57;7.87;;;5.53;;
16031;SDS011;8120;48.308;8.914;2023-09-08T05:38:25;7.50;;;4.63;;
16031;SDS011;8120;48.308;8.914;2023-09-08T05:40:55;7.07;;;5.07;;
16031;SDS011;8120;48.308;8.914;2023-09-08T05:43:24;6.57;;;4.70;;
16031;SDS011;8120;48.308;8.914;2023-09-08T05:45:52;6.67;;;5.43;;
16031;SDS011;8120;48.308;8.914;2023-09-08T05:48:20;8.70;;;5.63;;
16031;SDS011;8120;48.308;8.914;2023-09-08T05:50:48;7.20;;;5.60;;
16031;SDS011;8120;48.308;8.914;2023-09-08T05:53:16;5.53;;;4.70;;
16031;SDS011;8120;48.308;8.914;2023-09-08T05:55:44;7.13;;;5.73;;
16031;SDS011;8120;48.308;8.914;2023-09-08T05:58:13;7.00;;;5.23;;
16031;SDS011;8120;48.308;8.914;2023-09-08T06:00:41;7.50;;;5.10;;
16031;SDS011;8120;48.308;8.914;2023-09-08T06:03:09;7.73;;;5.53;;
16031;SDS011;8120;48.308;8.914;2023-09-08T06:05:37;7.33;;;4.80;;
16031;SDS011;8120;48.308;8.914;2023-09-08T06:08:05;7.70;;;5.47;;
16031;SDS011;8120;48.308;8.914;2023-09-08T06:10:33;7.77;;;5.13;;
16031;SDS011;8120;48.308;8.914;2023-09-08T06:13:01;6.77;;;5.37;;
16031;SDS011;8120;48.308;8.914;2023-09-08T06:15:30;6.83;;;5.57;;
16031;SDS011;8120;48.308;8.914;2023-09-08T06:17:58;6.43;;;5.70;;
16031;SDS011;8120;48.308;8.914;2023-09-08T06:20:26;6.80;;;5.33;;
16031;SDS011;8120;48.308;8.914;2023-09-08T06:22:54;7.20;;;5.47;;
16031;SDS011;8120;48.308;8.914;2023-09-08T06:25:22;9.43;;;6.27;;
16031;SDS011;8120;48.308;8.914;2023-09-08T06:27:50;7.80;;;5.50;;
16031;SDS011;8120;48.308;8.914;2023-09-08T06:30:17;8.30;;;6.00;;
16031;SDS011;8120;48.308;8.914;2023-09-08T06:32:47;6.57;;;5.13;;
16031;SDS011;8120;48.308;8.914;2023-09-08T06:35:15;7.07;;;5.20;;
16031;SDS011;8120;48.308;8.914;2023-09-08T06:37:43;7.35;;;5.80;;
16031;SDS011;8120;48.308;8.914;2023-09-08T06:40:11;13.88;;;6.47;;
16031;SDS011;8120;48.308;8.914;2023-09-08T06:42:39;6.03;;;5.00;;
16031;SDS011;8120;48.308;8.914;2023-09-08T06:45:07;9.37;;;6.33;;
16031;SDS011;8120;48.308;8.914;2023-09-08T06:47:36;8.60;;;6.10;;
16031;SDS011;8120;48.308;8.914;2023-09-08T06:50:06;6.80;;;6.00;;
16031;SDS011;8120;48.308;8.914;2023-09-08T06:52:34;10.07;;;6.70;;
16031;SDS011;8120;48.308;8.914;2023-09-08T06:55:02;8.83;;;6.87;;
16031;SDS011;8120;48.308;8.914;2023-09-08T06:57:31;8.30;;;6.97;;
16031;SDS011;8120;48.308;8.914;2023-09-08T07:00:00;8.43;;;7.23;;
16031;SDS011;8120;48.308;8.914;2023-09-08T07:02:31;8.80;;;6.63;;
16031;SDS011;8120;48.308;8.914;2023-09-08T07:04:59;9.23;;;7.07;;
16031;SDS011;8120;48.308;8.914;2023-09-08T07:07:34;8.13;;;6.00;;
16031;SDS011;8120;48.308;8.914;2023-09-08T07:10:02;8.23;;;6.43;;
16031;SDS011;8120;48.308;8.914;2023-09-08T07:12:31;7.30;;;6.40;;
16031;SDS011;8120;48.308;8.914;2023-09-08T07:14:59;10.63;;;7.87;;
16031;SDS011;8120;48.308;8.914;2023-09-08T07:17:27;9.10;;;6.97;;
16031;SDS011;8120;48.308;8.914;2023-09-08T07:19:55;8.23;;;6.70;;
16031;SDS011;8120;48.308;8.914;2023-09-08T07:22:23;9.27;;;7.13;;
16031;SDS011;8120;48.308;8.914;2023-09-08T07:24:52;8.43;;;7.17;;
16031;SDS011;8120;48.308;8.914;2023-09-08T07:27:20;8.03;;;6.53;;
16031;SDS011;8120;48.308;8.914;2023-09-08T07:29:48;9.37;;;6.20;;
16031;SDS011;8120;48.308;8.914;2023-09-08T07:32:16;9.10;;;7.30;;
16031;SDS011;8120;48.308;8.914;2023-09-08T07:34:43;10.13;;;6.53;;
16031;SDS011;8120;48.308;8.914;2023-09-08T07:37:12;8.48;;;6.82;;
16031;SDS011;8120;48.308;8.914;2023-09-08T07:39:40;8.18;;;6.53;;
16031;SDS011;8120;48.308;8.914;2023-09-08T07:42:09;8.50;;;7.32;;
16031;SDS011;8120;48.308;8.914;2023-09-08T07:44:37;9.82;;;7.25;;
16031;SDS011;8120;48.308;8.914;2023-09-08T07:47:05;9.02;;;7.00;;
16031;SDS011;8120;48.308;8.914;2023-09-08T07:49:32;8.50;;;7.40;;
16031;SDS011;8120;48.308;8.914;2023-09-08T07:52:01;10.70;;;6.85;;
16031;SDS011;8120;48.308;8.914;2023-09-08T07:54:30;8.55;;;6.82;;
16031;SDS011;8120;48.308;8.914;2023-09-08T07:56:58;9.15;;;7.38;;
16031;SDS011;8120;48.308;8.914;2023-09-08T07:59:27;8.57;;;6.90;;
16031;SDS011;8120;48.308;8.914;2023-09-08T08:01:55;7.75;;;6.95;;
16031;SDS011;8120;48.308;8.914;2023-09-08T08:04:23;8.05;;;6.57;;
16031;SDS011;8120;48.308;8.914;2023-09-08T08:06:51;10.23;;;7.03;;
16031;SDS011;8120;48.308;8.914;2023-09-08T08:09:19;11.45;;;7.93;;
16031;SDS011;8120;48.308;8.914;2023-09-08T08:11:47;9.35;;;8.43;;
16031;SDS011;8120;48.308;8.914;2023-09-08T08:14:15;9.45;;;7.35;;
16031;SDS011;8120;48.308;8.914;2023-09-08T08:16:44;9.15;;;7.90;;
16031;SDS011;8120;48.308;8.914;2023-09-08T08:19:13;10.57;;;8.13;;
16031;SDS011;8120;48.308;8.914;2023-09-08T08:21:40;9.38;;;8.27;;
16031;SDS011;8120;48.308;8.914;2023-09-08T08:24:09;10.27;;;8.60;;
16031;SDS011;8120;48.308;8.914;2023-09-08T08:26:37;9.50;;;8.27;;
16031;SDS011;8120;48.308;8.914;2023-09-08T08:29:05;10.45;;;8.85;;
16031;SDS011;8120;48.308;8.914;2023-09-08T08:31:33;9.40;;;8.27;;
16031;SDS011;8120;48.308;8.914;2023-09-08T08:34:02;9.80;;;7.47;;
16031;SDS011;8120;48.308;8.914;2023-09-08T08:36:30;9.60;;;6.43;;
16031;SDS011;8120;48.308;8.914;2023-09-08T08:38:58;8.57;;;6.43;;
16031;SDS011;8120;48.308;8.914;2023-09-08T08:41:25;8.15;;;6.53;;
16031;SDS011;8120;48.308;8.914;2023-09-08T08:43:54;8.55;;;6.88;;
16031;SDS011;8120;48.308;8.914;2023-09-08T08:46:23;11.05;;;7.20;;
16031;SDS011;8120;48.308;8.914;2023-09-08T08:48:53;9.43;;;7.22;;
16031;SDS011;8120;48.308;8.914;2023-09-08T08:51:23;7.25;;;6.28;;
16031;SDS011;8120;48.308;8.914;2023-09-08T08:53:51;9.68;;;7.20;;
16031;SDS011;8120;48.308;8.914;2023-09-08T08:56:19;10.73;;;7.13;;
16031;SDS011;8120;48.308;8.914;2023-09-08T08:58:48;9.25;;;7.18;;
16031;SDS011;8120;48.308;8.914;2023-09-08T09:01:16;8.07;;;6.85;;
16031;SDS011;8120;48.308;8.914;2023-09-08T09:03:46;7.55;;;6.82;;
16031;SDS011;8120;48.308;8.914;2023-09-08T09:06:17;9.68;;;7.45;;
16031;SDS011;8120;48.308;8.914;2023-09-08T09:08:46;9.50;;;7.25;;
16031;SDS011;8120;48.308;8.914;2023-09-08T09:11:14;9.18;;;7.40;;
16031;SDS011;8120;48.308;8.914;2023-09-08T09:13:42;8.73;;;7.20;;
16031;SDS011;8120;48.308;8.914;2023-09-08T09:16:10;8.93;;;7.28;;
16031;SDS011;8120;48.308;8.914;2023-09-08T09:18:53;8.88;;;7.05;;
16031;SDS011;8120;48.308;8.914;2023-09-08T09:21:22;12.07;;;7.22;;
16031;SDS011;8120;48.308;8.914;2023-09-08T09:23:52;9.70;;;6.88;;
16031;SDS011;8120;48.308;8.914;2023-09-08T09:26:23;7.63;;;6.63;;
16031;SDS011;8120;48.308;8.914;2023-09-08T09:28:52;8.15;;;6.50;;
16031;SDS011;8120;48.308;8.914;2023-09-08T09:31:23;8.40;;;7.25;;
16031;SDS011;8120;48.308;8.914;2023-09-08T09:36:39;7.22;;;6.30;;
16031;SDS011;8120;48.308;8.914;2023-09-08T09:39:13;7.95;;;6.60;;
16031;SDS011;8120;48.308;8.914;2023-09-08T09:41:43;7.85;;;5.95;;
16031;SDS011;8120;48.308;8.914;2023-09-08T09:44:11;9.57;;;6.95;;
16031;SDS011;8120;48.308;8.914;2023-09-08T09:46:42;7.65;;;6.43;;
16031;SDS011;8120;48.308;8.914;2023-09-08T09:49:11;7.78;;;6.28;;
16031;SDS011;8120;48.308;8.914;2023-09-08T09:51:40;10.25;;;6.63;;
16031;SDS011;8120;48.308;8.914;2023-09-08T09:54:09;8.13;;;6.63;;
16031;SDS011;8120;48.308;8.914;2023-09-08T09:56:39;8.18;;;6.05;;
16031;SDS011;8120;48.308;8.914;2023-09-08T09:59:12;9.93;;;6.90;;
16031;SDS011;8120;48.308;8.914;2023-09-08T10:01:41;6.90;;;6.05;;
16031;SDS011;8120;48.308;8.914;2023-09-08T10:04:09;7.53;;;6.40;;
16031;SDS011;8120;48.308;8.914;2023-09-08T10:06:38;9.25;;;6.85;;
16031;SDS011;8120;48.308;8.914;2023-09-08T10:09:07;9.07;;;7.32;;
16031;SDS011;8120;48.308;8.914;2023-09-08T10:11:42;8.82;;;7.05;;
16031;SDS011;8120;48.308;8.914;2023-09-08T10:14:15;7.28;;;6.35;;
16031;SDS011;8120;48.308;8.914;2023-09-08T10:16:45;7.03;;;6.32;;
16031;SDS011;8120;48.308;8.914;2023-09-08T10:19:19;7.68;;;6.85;;
16031;SDS011;8120;48.308;8.914;2023-09-08T10:21:49;9.43;;;6.53;;
16031;SDS011;8120;48.308;8.914;2023-09-08T10:24:21;8.18;;;6.25;;
16031;SDS011;8120;48.308;8.914;2023-09-08T10:26:54;7.43;;;6.43;;
16031;SDS011;8120;48.308;8.914;2023-09-08T10:29:27;9.73;;;7.22;;
16031;SDS011;8120;48.308;8.914;2023-09-08T10:31:56;7.55;;;6.57;;
16031;SDS011;8120;48.308;8.914;2023-09-08T10:34:25;8.10;;;6.43;;
16031;SDS011;8120;48.308;8.914;2023-09-08T10:36:54;10.23;;;7.38;;
16031;SDS011;8120;48.308;8.914;2023-09-08T10:39:30;9.25;;;7.55;;
16031;SDS011;8120;48.308;8.914;2023-09-08T10:42:22;9.35;;;6.85;;
16031;SDS011;8120;48.308;8.914;2023-09-08T10:44:56;8.88;;;7.13;;
16031;SDS011;8120;48.308;8.914;2023-09-08T10:47:31;9.40;;;6.40;;
16031;SDS011;8120;48.308;8.914;2023-09-08T10:50:03;6.90;;;6.20;;
16031;SDS011;8120;48.308;8.914;2023-09-08T10:52:31;9.82;;;7.10;;
16031;SDS011;8120;48.308;8.914;2023-09-08T10:55:01;8.93;;;6.88;;
16031;SDS011;8120;48.308;8.914;2023-09-08T10:57:34;8.73;;;6.80;;
16031;SDS011;8120;48.308;8.914;2023-09-08T11:00:02;10.00;;;6.72;;
16031;SDS011;8120;48.308;8.914;2023-09-08T11:02:39;9.88;;;5.82;;
16031;SDS011;8120;48.308;8.914;2023-09-08T11:05:08;7.95;;;6.90;;
16031;SDS011;8120;48.308;8.914;2023-09-08T11:07:37;8.88;;;6.90;;
16031;SDS011;8120;48.308;8.914;2023-09-08T11:10:06;7.30;;;6.47;;
16031;SDS011;8120;48.308;8.914;2023-09-08T11:12:36;7.05;;;6.18;;
16031;SDS011;8120;48.308;8.914;2023-09-08T11:15:05;8.27;;;6.68;;
16031;SDS011;8120;48.308;8.914;2023-09-08T11:17:35;8.00;;;6.18;;
16031;SDS011;8120;48.308;8.914;2023-09-08T11:20:06;9.32;;;5.90;;
16031;SDS011;8120;48.308;8.914;2023-09-08T11:22:37;8.35;;;6.60;;
16031;SDS011;8120;48.308;8.914;2023-09-08T11:25:07;9.20;;;6.43;;
16031;SDS011;8120;48.308;8.914;2023-09-08T11:27:38;8.82;;;7.28;;
16031;SDS011;8120;48.308;8.914;2023-09-08T11:30:07;7.53;;;6.65;;
16031;SDS011;8120;48.308;8.914;2023-09-08T11:32:36;8.38;;;6.18;;
16031;SDS011;8120;48.308;8.914;2023-09-08T11:35:04;9.40;;;6.50;;
16031;SDS011;8120;48.308;8.914;2023-09-08T11:37:35;8.85;;;5.95;;
16031;SDS011;8120;48.308;8.914;2023-09-08T11:40:05;7.60;;;6.80;;
16031;SDS011;8120;48.308;8.914;2023-09-08T11:42:40;7.85;;;6.70;;
16031;SDS011;8120;48.308;8.914;2023-09-08T11:45:11;7.55;;;6.70;;
16031;SDS011;8120;48.308;8.914;2023-09-08T11:47:40;7.25;;;6.53;;
16031;SDS011;8120;48.308;8.914;2023-09-08T11:50:09;9.75;;;6.28;;
16031;SDS011;8120;48.308;8.914;2023-09-08T11:52:43;6.90;;;6.03;;
16031;SDS011;8120;48.308;8.914;2023-09-08T11:55:11;6.57;;;5.57;;
16031;SDS011;8120;48.308;8.914;2023-09-08T11:57:41;8.27;;;6.28;;
16031;SDS011;8120;48.308;8.914;2023-09-08T12:00:10;7.68;;;6.18;;
16031;SDS011;8120;48.308;8.914;2023-09-08T12:02:42;7.95;;;6.05;;
16031;SDS011;8120;48.308;8.914;2023-09-08T12:05:11;7.78;;;6.32;;
16031;SDS011;8120;48.308;8.914;2023-09-08T12:07:40;6.65;;;5.95;;
16031;SDS011;8120;48.308;8.914;2023-09-08T12:10:09;8.68;;;6.45;;
16031;SDS011;8120;48.308;8.914;2023-09-08T12:12:43;7.40;;;6.38;;
16031;SDS011;8120;48.308;8.914;2023-09-08T12:18:02;7.72;;;6.28;;
16031;SDS011;8120;48.308;8.914;2023-09-08T12:20:31;8.45;;;5.95;;
16031;SDS011;8120;48.308;8.914;2023-09-08T12:23:00;8.15;;;6.22;;
16031;SDS011;8120;48.308;8.914;2023-09-08T12:25:29;7.50;;;5.97;;
16031;SDS011;8120;48.308;8.914;2023-09-08T12:28:00;7.50;;;6.22;;
16031;SDS011;8120;48.308;8.914;2023-09-08T12:30:29;6.88;;;6.18;;
16031;SDS011;8120;48.308;8.914;2023-09-08T12:32:59;11.13;;;6.15;;
16031;SDS011;8120;48.308;8.914;2023-09-08T12:35:28;6.93;;;6.13;;
16031;SDS011;8120;48.308;8.914;2023-09-08T12:37:58;7.43;;;6.63;;
16031;SDS011;8120;48.308;8.914;2023-09-08T12:40:28;8.43;;;6.65;;
16031;SDS011;8120;48.308;8.914;2023-09-08T12:42:57;6.88;;;5.97;;
16031;SDS011;8120;48.308;8.914;2023-09-08T12:45:47;8.80;;;6.53;;
16031;SDS011;8120;48.308;8.914;2023-09-08T12:48:14;7.63;;;6.63;;
16031;SDS011;8120;48.308;8.914;2023-09-08T12:50:42;8.25;;;6.38;;
16031;SDS011;8120;48.308;8.914;2023-09-08T12:53:10;7.78;;;6.00;;
16031;SDS011;8120;48.308;8.914;2023-09-08T12:55:38;7.63;;;6.10;;
16031;SDS011;8120;48.308;8.914;2023-09-08T12:58:07;7.93;;;6.10;;
16031;SDS011;8120;48.308;8.914;2023-09-08T13:00:35;8.55;;;6.07;;
16031;SDS011;8120;48.308;8.914;2023-09-08T13:03:03;8.73;;;6.22;;
16031;SDS011;8120;48.308;8.914;2023-09-08T13:05:31;7.70;;;6.20;;
16031;SDS011;8120;48.308;8.914;2023-09-08T13:08:03;8.40;;;6.30;;
16031;SDS011;8120;48.308;8.914;2023-09-08T13:10:31;8.32;;;5.40;;
16031;SDS011;8120;48.308;8.914;2023-09-08T13:12:59;9.50;;;6.28;;
16031;SDS011;8120;48.308;8.914;2023-09-08T13:15:28;7.88;;;6.38;;
16031;SDS011;8120;48.308;8.914;2023-09-08T13:17:56;6.82;;;5.80;;
16031;SDS011;8120;48.308;8.914;2023-09-08T13:20:24;8.52;;;6.30;;
16031;SDS011;8120;48.308;8.914;2023-09-08T13:22:52;7.30;;;6.55;;
16031;SDS011;8120;48.308;8.914;2023-09-08T13:25:20;7.78;;;6.45;;
16031;SDS011;8120;48.308;8.914;2023-09-08T13:27:48;8.02;;;5.85;;
16031;SDS011;8120;48.308;8.914;2023-09-08T13:30:16;8.45;;;6.80;;
16031;SDS011;8120;48.308;8.914;2023-09-08T13:32:46;7.38;;;6.38;;
16031;SDS011;8120;48.308;8.914;2023-09-08T13:35:14;8.55;;;6.53;;
16031;SDS011;8120;48.308;8.914;2023-09-08T13:37:42;7.80;;;6.28;;
16031;SDS011;8120;48.308;8.914;2023-09-08T13:40:10;7.32;;;6.07;;
16031;SDS011;8120;48.308;8.914;2023-09-08T13:42:39;8.18;;;6.50;;
16031;SDS011;8120;48.308;8.914;2023-09-08T13:45:07;7.68;;;6.68;;
16031;SDS011;8120;48.308;8.914;2023-09-08T13:47:36;8.80;;;6.75;;
16031;SDS011;8120;48.308;8.914;2023-09-08T13:50:07;6.43;;;5.70;;
16031;SDS011;8120;48.308;8.914;2023-09-08T13:52:36;9.43;;;6.43;;
16031;SDS011;8120;48.308;8.914;2023-09-08T13:55:09;9.05;;;6.45;;
16031;SDS011;8120;48.308;8.914;2023-09-08T13:57:57;8.57;;;6.45;;
16031;SDS011;8120;48.308;8.914;2023-09-08T14:00:28;7.80;;;6.50;;
16031;SDS011;8120;48.308;8.914;2023-09-08T14:02:57;7.25;;;6.55;;
16031;SDS011;8120;48.308;8.914;2023-09-08T14:05:32;7.85;;;6.20;;
16031;SDS011;8120;48.308;8.914;2023-09-08T14:08:03;7.68;;;6.65;;
16031;SDS011;8120;48.308;8.914;2023-09-08T14:10:43;6.72;;;5.72;;
16031;SDS011;8120;48.308;8.914;2023-09-08T14:13:14;9.20;;;6.75;;
16031;SDS011;8120;48.308;8.914;2023-09-08T14:15:42;8.32;;;6.68;;
16031;SDS011;8120;48.308;8.914;2023-09-08T14:18:10;7.45;;;5.70;;
16031;SDS011;8120;48.308;8.914;2023-09-08T14:20:41;7.28;;;6.28;;
16031;SDS011;8120;48.308;8.914;2023-09-08T14:23:10;8.13;;;6.35;;
16031;SDS011;8120;48.308;8.914;2023-09-08T14:25:37;6.60;;;5.63;;
16031;SDS011;8120;48.308;8.914;2023-09-08T14:28:05;7.05;;;5.93;;
16031;SDS011;8120;48.308;8.914;2023-09-08T14:30:33;7.55;;;6.70;;
16031;SDS011;8120;48.308;8.914;2023-09-08T14:33:02;8.10;;;6.43;;
16031;SDS011;8120;48.308;8.914;2023-09-08T14:35:30;9.38;;;6.93;;
16031;SDS011;8120;48.308;8.914;2023-09-08T14:37:59;8.32;;;6.47;;
16031;SDS011;8120;48.308;8.914;2023-09-08T14:40:27;7.13;;;6.10;;
16031;SDS011;8120;48.308;8.914;2023-09-08T14:42:55;7.78;;;5.90;;
16031;SDS011;8120;48.308;8.914;2023-09-08T14:45:23;6.78;;;6.07;;
16031;SDS011;8120;48.308;8.914;2023-09-08T14:47:53;7.18;;;6.30;;
16031;SDS011;8120;48.308;8.914;2023-09-08T14:50:23;8.70;;;6.30;;
16031;SDS011;8120;48.308;8.914;2023-09-08T14:52:51;8.00;;;6.82;;
16031;SDS011;8120;48.308;8.914;2023-09-08T14:55:20;6.85;;;6.15;;
16031;SDS011;8120;48.308;8.914;2023-09-08T14:57:48;8.18;;;6.13;;
16031;SDS011;8120;48.308;8.914;2023-09-08T15:00:16;7.55;;;6.45;;
16031;SDS011;8120;48.308;8.914;2023-09-08T15:02:44;8.35;;;6.60;;
16031;SDS011;8120;48.308;8.914;2023-09-08T15:05:12;7.20;;;6.15;;
16031;SDS011;8120;48.308;8.914;2023-09-08T15:07:41;8.23;;;6.28;;
16031;SDS011;8120;48.308;8.914;2023-09-08T15:10:09;6.57;;;5.90;;
16031;SDS011;8120;48.308;8.914;2023-09-08T15:12:38;10.52;;;6.65;;
16031;SDS011;8120;48.308;8.914;2023-09-08T15:15:07;10.32;;;6.80;;